Time;durP1;ratioP1;P1;durP2;ratioP2;P2;SDS_P1;SDS_P2;PMS_P1;PMS_P2;Temp;Humidity;BMP_temperature;BMP_pressure;BME280_temperature;BME280_humidity;BME280_pressure;Samples;Min_cycle;Max_cycle;Signal;HPM_P1;HPM_P2
2024/02/03 00:01:06;;;;;;;;;;;;;;;-2.82;71.21;101751.02;107530;1251;107850;-65
2024/02/03 00:03:52;;;;;;;;;;;;;;;-2.83;71.13;101743.14;107529;1251;108911;-64
2024/02/03 00:06:21;;;;;;;;;;;;;;;-2.86;71.11;101745.64;107582;1254;97905;-65
2024/02/03 00:08:51;;;;;;;;;;;;;;;-2.89;70.79;101736.56;107642;1251;97701;-64
2024/02/03 00:11:19;;;;;;;;;;;;;;;-2.90;71.18;101735.16;107617;1251;111779;-64
2024/02/03 00:13:47;;;;;;;;;;;;;;;-2.91;71.05;101737.83;107515;1251;107941;-64
2024/02/03 00:16:16;;;;;;;;;;;;;;;-2.94;70.82;101735.93;107473;1251;108363;-64
2024/02/03 00:18:44;;;;;;;;;;;;;;;-2.97;70.85;101731.96;107564;1251;97908;-64
2024/02/03 00:21:13;;;;;;;;;;;;;;;-2.99;70.94;101730.58;107542;1251;98059;-64
2024/02/03 00:23:44;;;;;;;;;;;;;;;-3.01;70.82;101726.23;107588;1250;111814;-65
2024/02/03 00:26:12;;;;;;;;;;;;;;;-3.05;71.01;101718.73;107501;1254;107910;-64
2024/02/03 00:28:40;;;;;;;;;;;;;;;-3.08;70.82;101719.66;107618;1256;109017;-65
2024/02/03 00:31:09;;;;;;;;;;;;;;;-3.10;70.84;101710.41;107614;1251;99000;-64
2024/02/03 00:33:37;;;;;;;;;;;;;;;-3.12;71.15;101707.30;107527;1254;97820;-64
2024/02/03 00:36:06;;;;;;;;;;;;;;;-3.15;71.11;101705.39;107546;1251;111417;-64
2024/02/03 00:38:35;;;;;;;;;;;;;;;-3.14;71.09;101702.40;107553;1251;107693;-64
2024/02/03 00:41:03;;;;;;;;;;;;;;;-3.15;71.51;101698.20;107548;1251;107154;-64
2024/02/03 00:43:32;;;;;;;;;;;;;;;-3.15;71.38;101691.17;107477;1253;97953;-65
2024/02/03 00:46:00;;;;;;;;;;;;;;;-3.13;71.24;101685.72;107551;1256;97736;-65
2024/02/03 00:48:27;;;;;;;;;;;;;;;-3.15;71.26;101685.74;107580;1254;111745;-64
2024/02/03 00:50:56;;;;;;;;;;;;;;;-3.13;71.38;101686.08;107632;1250;107967;-64
2024/02/03 00:53:24;;;;;;;;;;;;;;;-3.12;71.38;101679.36;107477;1251;108097;-64
2024/02/03 00:55:52;;;;;;;;;;;;;;;-3.11;71.18;101668.66;107524;1251;97739;-65
2024/02/03 00:58:20;;;;;;;;;;;;;;;-3.12;70.99;101666.74;107538;1251;97950;-64
2024/02/03 01:00:49;;;;;;;;;;;;;;;-3.10;71.15;101663.91;107557;1254;111220;-65
2024/02/03 01:03:17;;;;;;;;;;;;;;;-3.09;71.25;101659.15;107649;1256;108714;-65
2024/02/03 01:05:47;;;;;;;;;;;;;;;-3.09;71.16;101660.02;107576;1257;108587;-65
2024/02/03 01:08:15;;;;;;;;;;;;;;;-3.09;71.14;101658.09;107503;1251;97864;-64
2024/02/03 01:10:44;;;;;;;;;;;;;;;-3.06;71.27;101656.98;107524;1255;97911;-65
2024/02/03 01:13:12;;;;;;;;;;;;;;;-3.03;71.32;101653.96;107502;1256;111346;-64
2024/02/03 01:15:41;;;;;;;;;;;;;;;-2.98;71.37;101653.87;107603;1251;108290;-64
2024/02/03 01:18:09;;;;;;;;;;;;;;;-2.94;71.64;101650.63;107539;1256;108475;-64
2024/02/03 01:20:38;;;;;;;;;;;;;;;-2.91;71.57;101646.36;107514;1255;97825;-65
2024/02/03 01:23:06;;;;;;;;;;;;;;;-2.88;71.48;101643.86;107602;1255;97835;-64
2024/02/03 01:25:34;;;;;;;;;;;;;;;-2.86;71.63;101637.84;107594;1251;112191;-64
2024/02/03 01:28:03;;;;;;;;;;;;;;;-2.81;71.78;101637.93;107617;1251;108352;-64
2024/02/03 01:30:31;;;;;;;;;;;;;;;-2.79;71.69;101628.95;107555;1254;108220;-64
2024/02/03 01:32:59;;;;;;;;;;;;;;;-2.77;71.86;101625.05;107556;1254;97824;-65
2024/02/03 01:35:30;;;;;;;;;;;;;;;-2.73;71.90;101624.60;107547;1255;97950;-64
2024/02/03 01:37:58;;;;;;;;;;;;;;;-2.69;71.89;101618.20;107561;1251;111898;-65
2024/02/03 01:40:27;;;;;;;;;;;;;;;-2.66;71.91;101615.17;107645;1251;108110;-65
2024/02/03 01:43:02;;;;;;;;;;;;;;;-2.64;71.94;101610.38;107616;1251;108546;-65
2024/02/03 01:45:30;;;;;;;;;;;;;;;-2.60;71.96;101598.89;107580;1251;97838;-65
2024/02/03 01:47:59;;;;;;;;;;;;;;;-2.57;72.18;101591.28;107607;1251;97748;-65
2024/02/03 01:50:28;;;;;;;;;;;;;;;-2.55;72.04;101577.88;107494;1251;111934;-64
2024/02/03 01:52:56;;;;;;;;;;;;;;;-2.53;71.88;101568.71;107597;1254;108119;-64
2024/02/03 01:55:25;;;;;;;;;;;;;;;-2.51;71.91;101566.75;107681;1251;107130;-64
2024/02/03 01:57:53;;;;;;;;;;;;;;;-2.50;72.12;101568.30;107572;1254;97816;-65
2024/02/03 02:00:21;;;;;;;;;;;;;;;-2.49;72.09;101567.40;107589;1251;97802;-65
2024/02/03 02:02:50;;;;;;;;;;;;;;;-2.48;72.19;101561.59;107598;1254;111219;-65
2024/02/03 02:05:19;;;;;;;;;;;;;;;-2.45;72.26;101553.97;107563;1251;108770;-64
2024/02/03 02:07:47;;;;;;;;;;;;;;;-2.44;72.21;101551.30;107557;1253;107744;-65
2024/02/03 02:10:17;;;;;;;;;;;;;;;-2.42;72.11;101544.59;107642;1256;97827;-65
2024/02/03 02:12:46;;;;;;;;;;;;;;;-2.38;72.55;101539.95;107629;1254;97880;-65
2024/02/03 02:15:14;;;;;;;;;;;;;;;-2.35;72.39;101534.95;107624;1251;113772;-64
2024/02/03 02:17:43;;;;;;;;;;;;;;;-2.32;72.44;101526.27;107605;1251;106505;-66
2024/02/03 02:20:14;;;;;;;;;;;;;;;-2.27;72.69;101514.76;107550;1251;107938;-64
2024/02/03 02:22:42;;;;;;;;;;;;;;;-2.22;72.57;101506.02;107533;1251;97824;-64
2024/02/03 02:25:10;;;;;;;;;;;;;;;-2.18;72.47;101501.17;107513;1251;97834;-66
2024/02/03 02:27:39;;;;;;;;;;;;;;;-2.13;72.49;101492.62;107601;1251;111722;-64
2024/02/03 02:30:07;;;;;;;;;;;;;;;-2.07;72.69;101484.76;107624;1251;107933;-64
2024/02/03 02:32:37;;;;;;;;;;;;;;;-2.00;73.10;101484.05;107492;1254;108464;-64
2024/02/03 02:35:05;;;;;;;;;;;;;;;-1.96;72.99;101484.11;107584;1254;97825;-65
2024/02/03 02:37:33;;;;;;;;;;;;;;;-1.92;73.05;101482.45;107588;1254;97856;-65
2024/02/03 02:40:02;;;;;;;;;;;;;;;-1.86;72.89;101487.07;107649;1256;111333;-66
2024/02/03 02:42:30;;;;;;;;;;;;;;;-1.87;72.62;101482.14;107514;1254;108230;-65
2024/02/03 02:44:59;;;;;;;;;;;;;;;-1.87;72.99;101463.31;107567;1254;107979;-65
2024/02/03 02:47:27;;;;;;;;;;;;;;;-1.84;73.24;101455.90;107597;1254;97838;-65
2024/02/03 02:49:55;;;;;;;;;;;;;;;-1.84;72.89;101461.50;107623;1254;97834;-65
2024/02/03 02:52:24;;;;;;;;;;;;;;;-1.83;72.84;101461.83;107601;1254;111232;-66
2024/02/03 02:54:53;;;;;;;;;;;;;;;-1.84;72.71;101458.48;107643;1254;108513;-65
2024/02/03 02:57:21;;;;;;;;;;;;;;;-1.85;72.53;101461.52;107572;1254;107803;-66
2024/02/03 02:59:50;;;;;;;;;;;;;;;-1.85;72.89;101458.36;107605;1254;97831;-64
2024/02/03 03:02:18;;;;;;;;;;;;;;;-1.84;72.73;101452.88;107594;1257;97964;-65
2024/02/03 03:04:46;;;;;;;;;;;;;;;-1.82;72.71;101451.41;107634;1254;111267;-65
2024/02/03 03:07:15;;;;;;;;;;;;;;;-1.80;72.80;101450.86;107658;1254;107701;-65
2024/02/03 03:09:43;;;;;;;;;;;;;;;-1.81;72.82;101442.61;107574;1253;109362;-65
2024/02/03 03:12:11;;;;;;;;;;;;;;;-1.81;72.94;101425.02;107527;1254;97905;-65
2024/02/03 03:14:40;;;;;;;;;;;;;;;-1.81;72.72;101427.13;107543;1256;97931;-66
2024/02/03 03:17:08;;;;;;;;;;;;;;;-1.81;72.88;101428.20;107627;1254;112007;-63
2024/02/03 03:19:37;;;;;;;;;;;;;;;-1.83;72.95;101427.70;107596;1254;107926;-63
2024/02/03 03:22:05;;;;;;;;;;;;;;;-1.86;72.81;101429.02;107605;1253;108466;-66
2024/02/03 03:24:34;;;;;;;;;;;;;;;-1.87;72.69;101426.92;107602;1257;97835;-64
2024/02/03 03:27:03;;;;;;;;;;;;;;;-1.89;72.57;101418.88;107513;1254;97835;-64
2024/02/03 03:29:32;;;;;;;;;;;;;;;-1.92;72.73;101420.71;107508;1251;111383;-65
2024/02/03 03:32:00;;;;;;;;;;;;;;;-1.95;72.73;101421.52;107529;1253;108565;-64
2024/02/03 03:34:28;;;;;;;;;;;;;;;-1.97;72.70;101411.71;107500;1251;108535;-63
2024/02/03 03:36:56;;;;;;;;;;;;;;;-1.91;72.97;101396.80;107456;1251;97857;-64
2024/02/03 03:39:24;;;;;;;;;;;;;;;-1.84;73.19;101399.95;107492;1251;97822;-63
2024/02/03 03:41:54;;;;;;;;;;;;;;;-1.78;72.74;101393.63;107498;1251;112235;-64
2024/02/03 03:44:22;;;;;;;;;;;;;;;-1.77;72.70;101395.02;107464;1251;108947;-63
2024/02/03 03:46:50;;;;;;;;;;;;;;;-1.76;72.52;101390.75;107514;1251;107775;-63
2024/02/03 03:49:18;;;;;;;;;;;;;;;-1.76;72.33;101378.83;107470;1251;97834;-63
2024/02/03 03:51:47;;;;;;;;;;;;;;;-1.80;71.96;101379.10;107545;1251;97847;-63
2024/02/03 03:54:15;;;;;;;;;;;;;;;-1.83;71.99;101373.20;107470;1251;111253;-63
2024/02/03 03:56:44;;;;;;;;;;;;;;;-1.83;72.25;101370.02;107536;1251;107069;-64
2024/02/03 03:59:13;;;;;;;;;;;;;;;-1.81;72.26;101368.76;107511;1251;108439;-64
2024/02/03 04:01:46;;;;;;;;;;;;;;;-1.79;72.40;101364.30;107545;1251;97834;-65
2024/02/03 04:04:15;;;;;;;;;;;;;;;-1.67;72.81;101353.95;107546;1251;97707;-64
2024/02/03 04:06:43;;;;;;;;;;;;;;;-1.57;72.80;101346.98;107489;1254;111361;-65
2024/02/03 04:09:12;;;;;;;;;;;;;;;-1.42;72.20;101340.03;107656;1254;107865;-64
2024/02/03 04:11:41;;;;;;;;;;;;;;;-1.24;71.87;101342.16;107503;1251;107869;-65
2024/02/03 04:14:09;;;;;;;;;;;;;;;-1.09;71.27;101337.81;107567;1251;98047;-64
2024/02/03 04:16:37;;;;;;;;;;;;;;;-0.97;70.76;101339.20;107540;1251;97820;-64
2024/02/03 04:19:05;;;;;;;;;;;;;;;-0.86;70.66;101340.13;107490;1251;112704;-64
2024/02/03 04:21:33;;;;;;;;;;;;;;;-0.83;70.60;101340.54;107503;1251;107116;-64
2024/02/03 04:24:02;;;;;;;;;;;;;;;-0.74;70.33;101338.33;107450;1254;107865;-64
2024/02/03 04:26:30;;;;;;;;;;;;;;;-0.66;70.19;101332.23;107583;1254;97943;-64
2024/02/03 04:28:58;;;;;;;;;;;;;;;-0.57;69.49;101323.86;107663;1255;97866;-64
2024/02/03 04:31:26;;;;;;;;;;;;;;;-0.49;68.95;101319.89;107645;1251;111367;-64
2024/02/03 04:33:54;;;;;;;;;;;;;;;-0.41;68.25;101326.48;107465;1251;108272;-65
2024/02/03 04:36:23;;;;;;;;;;;;;;;-0.34;68.02;101321.31;107441;1254;107834;-65
2024/02/03 04:38:51;;;;;;;;;;;;;;;-0.28;67.73;101316.72;107489;1251;97808;-64
2024/02/03 04:41:20;;;;;;;;;;;;;;;-0.23;67.49;101317.77;107548;1251;97704;-64
2024/02/03 04:43:48;;;;;;;;;;;;;;;-0.16;66.85;101316.44;107606;1251;111797;-64
2024/02/03 04:46:18;;;;;;;;;;;;;;;-0.11;67.05;101313.30;107521;1251;107244;-64
2024/02/03 04:48:46;;;;;;;;;;;;;;;-0.13;67.27;101310.70;107492;1254;108449;-65
2024/02/03 04:51:15;;;;;;;;;;;;;;;-0.16;67.58;101310.64;107460;1254;97805;-63
2024/02/03 04:53:44;;;;;;;;;;;;;;;-0.22;67.63;101310.33;107614;1253;97697;-62
2024/02/03 04:56:12;;;;;;;;;;;;;;;-0.25;67.85;101312.75;107443;1251;111990;-63
2024/02/03 04:58:40;;;;;;;;;;;;;;;-0.29;68.09;101306.88;107474;1254;107654;-62
2024/02/03 05:01:08;;;;;;;;;;;;;;;-0.32;68.38;101291.80;107630;1254;108248;-63
2024/02/03 05:03:37;;;;;;;;;;;;;;;-0.31;68.68;101292.30;107478;1251;97823;-62
2024/02/03 05:06:06;;;;;;;;;;;;;;;-0.30;68.99;101303.20;107513;1251;97829;-63
2024/02/03 05:08:34;;;;;;;;;;;;;;;-0.27;69.32;101301.34;107478;1251;112254;-63
2024/02/03 05:11:03;;;;;;;;;;;;;;;-0.24;69.42;101289.44;107430;1253;107912;-65
2024/02/03 05:13:31;;;;;;;;;;;;;;;-0.23;69.30;101287.46;107556;1254;108515;-65
2024/02/03 05:15:59;;;;;;;;;;;;;;;-0.22;69.48;101286.71;107659;1251;97821;-64
2024/02/03 05:18:29;;;;;;;;;;;;;;;-0.21;69.54;101281.36;107524;1251;97916;-64
2024/02/03 05:20:58;;;;;;;;;;;;;;;-0.18;69.55;101280.21;107544;1251;111580;-62
2024/02/03 05:23:26;;;;;;;;;;;;;;;-0.20;69.40;101279.04;107531;1251;108438;-62
2024/02/03 05:25:54;;;;;;;;;;;;;;;-0.20;69.76;101282.41;107609;1254;107153;-62
2024/02/03 05:28:22;;;;;;;;;;;;;;;-0.21;69.82;101280.49;107507;1254;97821;-63
2024/02/03 05:30:50;;;;;;;;;;;;;;;-0.23;69.76;101282.88;107510;1251;97700;-63
2024/02/03 05:33:18;;;;;;;;;;;;;;;-0.27;69.46;101279.84;107599;1254;111005;-63
2024/02/03 05:35:46;;;;;;;;;;;;;;;-0.34;69.72;101279.71;107643;1254;107865;-63
2024/02/03 05:38:15;;;;;;;;;;;;;;;-0.40;69.71;101277.61;107572;1251;108567;-63
2024/02/03 05:40:43;;;;;;;;;;;;;;;-0.46;69.58;101275.89;107598;1253;97809;-64
2024/02/03 05:43:11;;;;;;;;;;;;;;;-0.52;69.57;101272.40;107632;1255;97889;-63
2024/02/03 05:45:39;;;;;;;;;;;;;;;-0.58;69.46;101269.26;107659;1254;110997;-65
2024/02/03 05:48:07;;;;;;;;;;;;;;;-0.64;69.54;101271.55;107552;1251;108483;-65
2024/02/03 05:50:36;;;;;;;;;;;;;;;-0.67;69.78;101255.30;107620;1253;106334;-65
2024/02/03 05:53:04;;;;;;;;;;;;;;;-0.70;69.93;101246.42;107593;1251;97838;-68
2024/02/03 05:55:36;;;;;;;;;;;;;;;-0.74;69.98;101242.83;107637;1254;97838;-65
2024/02/03 05:58:04;;;;;;;;;;;;;;;-0.77;70.06;101246.29;107693;1251;111881;-65
2024/02/03 06:00:32;;;;;;;;;;;;;;;-0.78;70.01;101253.36;107558;1251;108027;-65
2024/02/03 06:03:00;;;;;;;;;;;;;;;-0.76;69.97;101243.63;107537;1251;107223;-64
2024/02/03 06:05:28;;;;;;;;;;;;;;;-0.75;70.12;101239.88;107558;1251;97851;-65
2024/02/03 06:07:57;;;;;;;;;;;;;;;-0.73;70.28;101243.18;107572;1254;97718;-64
2024/02/03 06:10:25;;;;;;;;;;;;;;;-0.72;70.23;101238.89;107652;1254;111253;-65
2024/02/03 06:12:53;;;;;;;;;;;;;;;-0.70;70.53;101250.45;107650;1254;107392;-65
2024/02/03 06:15:22;;;;;;;;;;;;;;;-0.70;70.64;101249.93;107599;1254;107972;-65
2024/02/03 06:17:50;;;;;;;;;;;;;;;-0.69;70.63;101244.08;107655;1254;97891;-64
2024/02/03 06:20:19;;;;;;;;;;;;;;;-0.68;70.65;101239.83;107625;1251;97828;-65
2024/02/03 06:22:47;;;;;;;;;;;;;;;-0.67;70.79;101239.79;107611;1250;111477;-65
2024/02/03 06:25:15;;;;;;;;;;;;;;;-0.64;70.74;101244.25;107554;1253;107803;-66
2024/02/03 06:27:43;;;;;;;;;;;;;;;-0.60;70.86;101235.69;107561;1254;107683;-65
2024/02/03 06:30:12;;;;;;;;;;;;;;;-0.56;71.41;101231.14;107615;1251;97867;-66
2024/02/03 06:32:40;;;;;;;;;;;;;;;-0.49;71.68;101224.73;107643;1251;97857;-65
2024/02/03 06:35:08;;;;;;;;;;;;;;;-0.38;71.92;101221.17;107514;1251;110810;-65
2024/02/03 06:37:36;;;;;;;;;;;;;;;-0.29;71.79;101218.04;107530;1251;108391;-65
2024/02/03 06:40:05;;;;;;;;;;;;;;;-0.16;71.80;101208.59;107573;1251;108694;-65
2024/02/03 06:42:33;;;;;;;;;;;;;;;0.00;71.25;101203.04;107546;1251;97844;-64
2024/02/03 06:45:02;;;;;;;;;;;;;;;0.19;71.10;101203.20;107565;1251;98388;-65
2024/02/03 06:47:31;;;;;;;;;;;;;;;0.37;70.60;101207.83;107576;1251;111600;-63
2024/02/03 06:49:59;;;;;;;;;;;;;;;0.57;69.95;101207.06;107533;1251;108789;-64
2024/02/03 06:52:27;;;;;;;;;;;;;;;0.77;69.07;101211.74;107526;1254;107626;-64
2024/02/03 06:54:56;;;;;;;;;;;;;;;0.94;68.48;101208.02;107547;1254;97895;-64
2024/02/03 06:57:24;;;;;;;;;;;;;;;1.10;66.96;101202.79;107548;1252;97888;-64
2024/02/03 06:59:52;;;;;;;;;;;;;;;1.28;65.65;101198.30;107619;1254;112242;-64
2024/02/03 07:02:21;;;;;;;;;;;;;;;1.44;63.92;101191.23;107638;1251;108522;-65
2024/02/03 07:04:50;;;;;;;;;;;;;;;1.63;63.50;101193.09;107556;1253;107434;-66
2024/02/03 07:07:18;;;;;;;;;;;;;;;1.81;63.06;101187.84;107528;1251;97827;-65
2024/02/03 07:09:47;;;;;;;;;;;;;;;2.01;61.35;101179.70;107645;1251;97922;-65
2024/02/03 07:12:15;;;;;;;;;;;;;;;2.17;60.79;101176.15;107566;1254;113352;-64
2024/02/03 07:14:44;;;;;;;;;;;;;;;2.28;61.87;101170.66;107627;1254;107877;-66
2024/02/03 07:17:22;;;;;;;;;;;;;;;2.40;60.87;101168.33;107642;1251;107380;-66
2024/02/03 07:19:50;;;;;;;;;;;;;;;2.51;60.34;101169.25;107485;1251;97972;-66
2024/02/03 07:22:20;;;;;;;;;;;;;;;2.60;60.02;101161.17;107546;1251;97736;-63
2024/02/03 07:24:49;;;;;;;;;;;;;;;2.70;59.86;101163.88;107576;1254;112172;-65
2024/02/03 07:27:20;;;;;;;;;;;;;;;2.78;58.98;101162.95;107573;1251;107659;-66
2024/02/03 07:29:49;;;;;;;;;;;;;;;2.80;58.53;101163.71;107561;1251;108590;-64
2024/02/03 07:32:17;;;;;;;;;;;;;;;2.81;58.21;101165.64;107586;1251;97745;-65
2024/02/03 07:34:46;;;;;;;;;;;;;;;2.87;57.67;101155.61;107667;1250;98509;-65
2024/02/03 07:37:14;;;;;;;;;;;;;;;2.90;57.58;101146.04;107596;1250;111675;-65
2024/02/03 07:39:42;;;;;;;;;;;;;;;2.92;57.47;101147.38;107626;1251;108179;-65
2024/02/03 07:42:11;;;;;;;;;;;;;;;2.93;58.27;101152.46;107549;1250;108477;-65
2024/02/03 07:44:39;;;;;;;;;;;;;;;2.96;58.38;101153.52;107576;1254;97860;-65
2024/02/03 07:47:07;;;;;;;;;;;;;;;3.01;58.33;101150.63;107688;1254;97963;-65
2024/02/03 07:49:35;;;;;;;;;;;;;;;3.06;57.93;101141.86;107648;1251;111858;-65
2024/02/03 07:52:05;;;;;;;;;;;;;;;3.11;58.41;101134.01;107609;1251;107635;-65
2024/02/03 07:54:33;;;;;;;;;;;;;;;3.15;58.85;101135.41;107643;1251;107566;-64
2024/02/03 07:57:02;;;;;;;;;;;;;;;3.20;58.64;101139.39;107436;1251;97866;-65
2024/02/03 07:59:30;;;;;;;;;;;;;;;3.26;58.48;101144.55;107609;1254;97944;-64
2024/02/03 08:01:58;;;;;;;;;;;;;;;3.31;58.35;101134.04;107588;1251;111921;-64
2024/02/03 08:04:26;;;;;;;;;;;;;;;3.38;58.78;101134.38;107615;1251;108480;-65
2024/02/03 08:06:54;;;;;;;;;;;;;;;3.48;59.00;101128.39;107592;1252;107813;-66
2024/02/03 08:09:23;;;;;;;;;;;;;;;3.56;57.58;101123.34;107502;1251;97825;-66
2024/02/03 08:11:51;;;;;;;;;;;;;;;3.67;57.60;101120.45;107654;1253;97712;-66
2024/02/03 08:14:20;;;;;;;;;;;;;;;3.72;57.59;101116.64;107650;1254;112070;-65
2024/02/03 08:16:48;;;;;;;;;;;;;;;3.76;57.07;101114.30;107621;1251;108307;-64
2024/02/03 08:19:17;;;;;;;;;;;;;;;3.75;57.11;101116.28;107621;1255;108018;-63
2024/02/03 08:21:45;;;;;;;;;;;;;;;3.76;57.35;101115.14;107643;1251;97848;-65
2024/02/03 08:24:13;;;;;;;;;;;;;;;3.79;57.86;101112.88;107519;1251;97841;-64
2024/02/03 08:26:41;;;;;;;;;;;;;;;3.83;58.08;101111.05;107519;1251;111815;-64
2024/02/03 08:29:11;;;;;;;;;;;;;;;3.86;57.77;101111.59;107509;1250;107626;-64
2024/02/03 08:31:39;;;;;;;;;;;;;;;3.90;57.84;101108.69;107536;1251;107637;-69
2024/02/03 08:34:07;;;;;;;;;;;;;;;3.97;57.32;101097.16;107636;1252;97988;-63
2024/02/03 08:36:36;;;;;;;;;;;;;;;4.05;56.26;101095.48;107640;1253;97704;-64
2024/02/03 08:39:04;;;;;;;;;;;;;;;4.15;55.64;101089.42;107581;1254;111372;-66
2024/02/03 08:41:32;;;;;;;;;;;;;;;4.28;55.71;101086.55;107607;1254;108620;-66
2024/02/03 08:44:00;;;;;;;;;;;;;;;4.45;54.85;101085.95;107526;1251;107571;-66
2024/02/03 08:46:28;;;;;;;;;;;;;;;4.59;54.08;101077.88;106891;1251;818416;-67
2024/02/03 08:48:56;;;;;;;;;;;;;;;4.70;53.81;101080.25;107529;1254;97912;-64
2024/02/03 08:51:25;;;;;;;;;;;;;;;4.81;52.77;101083.70;107623;1250;111466;-64
2024/02/03 08:53:53;;;;;;;;;;;;;;;4.86;53.09;101081.95;107552;1251;107268;-64
2024/02/03 08:56:21;;;;;;;;;;;;;;;4.90;52.99;101082.80;107454;1254;109312;-65
2024/02/03 08:58:53;;;;;;;;;;;;;;;4.93;52.52;101075.33;107602;1251;97873;-65
2024/02/03 09:01:22;;;;;;;;;;;;;;;4.96;52.46;101076.36;107467;1251;97834;-65
2024/02/03 09:03:51;;;;;;;;;;;;;;;5.03;52.00;101074.57;107584;1251;112771;-64
2024/02/03 09:06:23;;;;;;;;;;;;;;;5.09;52.41;101076.89;107668;1251;108359;-64
2024/02/03 09:08:52;;;;;;;;;;;;;;;5.16;52.20;101077.64;107492;1254;108795;-64
2024/02/03 09:11:21;;;;;;;;;;;;;;;5.20;52.01;101072.08;107517;1251;97757;-65
2024/02/03 09:13:50;;;;;;;;;;;;;;;5.25;52.00;101064.50;107574;1254;97729;-64
2024/02/03 09:16:18;;;;;;;;;;;;;;;5.28;51.71;101063.42;107615;1254;112435;-65
2024/02/03 09:18:46;;;;;;;;;;;;;;;5.32;51.43;101055.73;107593;1251;108635;-66
2024/02/03 09:21:14;;;;;;;;;;;;;;;5.37;51.04;101044.58;107538;1251;107886;-67
2024/02/03 09:23:47;;;;;;;;;;;;;;;5.39;51.20;101038.02;107573;1251;97802;-64
2024/02/03 09:26:15;;;;;;;;;;;;;;;5.43;50.94;101033.17;107541;1251;97829;-64
2024/02/03 09:28:43;;;;;;;;;;;;;;;5.47;50.51;101032.54;107551;1250;112063;-65
2024/02/03 09:31:18;;;;;;;;;;;;;;;5.51;50.34;101023.73;107605;1251;108616;-64
2024/02/03 09:33:47;;;;;;;;;;;;;;;5.59;50.54;101023.58;107518;1251;107408;-64
2024/02/03 09:36:15;;;;;;;;;;;;;;;5.72;50.52;101022.30;107501;1251;98043;-64
2024/02/03 09:38:43;;;;;;;;;;;;;;;5.84;50.29;101024.00;107561;1251;97841;-63
2024/02/03 09:41:12;;;;;;;;;;;;;;;5.89;50.11;101024.74;107534;1250;111076;-63
2024/02/03 09:43:41;;;;;;;;;;;;;;;5.90;49.91;101018.61;107602;1251;108710;-65
2024/02/03 09:46:09;;;;;;;;;;;;;;;5.90;49.78;101007.05;107577;1251;107516;-66
2024/02/03 09:48:38;;;;;;;;;;;;;;;5.91;49.98;101004.85;107621;1254;98495;-65
2024/02/03 09:51:06;;;;;;;;;;;;;;;5.95;49.53;101006.20;107532;1251;97819;-65
2024/02/03 09:53:37;;;;;;;;;;;;;;;6.00;49.58;101000.02;107565;1254;111866;-64
2024/02/03 09:56:07;;;;;;;;;;;;;;;6.08;49.94;100996.10;107525;1250;107633;-65
2024/02/03 09:58:35;;;;;;;;;;;;;;;6.15;50.23;100989.48;107518;1251;108267;-64
2024/02/03 10:01:03;;;;;;;;;;;;;;;6.22;50.12;100983.27;107542;1251;97851;-65
2024/02/03 10:03:32;;;;;;;;;;;;;;;6.31;50.50;100972.69;107610;1250;97774;-65
2024/02/03 10:06:02;;;;;;;;;;;;;;;6.40;49.86;100973.67;107607;1252;112165;-64
2024/02/03 10:08:31;;;;;;;;;;;;;;;6.48;49.92;100971.93;107648;1251;108306;-65
2024/02/03 10:10:59;;;;;;;;;;;;;;;6.53;50.03;100966.92;107521;1254;107979;-65
2024/02/03 10:13:27;;;;;;;;;;;;;;;6.58;49.15;100961.79;107568;1253;97832;-64
2024/02/03 10:16:01;;;;;;;;;;;;;;;6.61;49.50;100957.84;107641;1251;97720;-65
2024/02/03 10:18:33;;;;;;;;;;;;;;;6.69;50.06;100961.38;107607;1254;111286;-65
2024/02/03 10:21:03;;;;;;;;;;;;;;;6.82;49.67;100964.41;107631;1250;108492;-67
2024/02/03 10:23:31;;;;;;;;;;;;;;;6.93;49.42;100962.27;107597;1250;108527;-65
2024/02/03 10:26:00;;;;;;;;;;;;;;;7.01;48.65;100957.73;107607;1251;97840;-65
2024/02/03 10:28:28;;;;;;;;;;;;;;;7.13;48.52;100954.58;107602;1254;97957;-63
2024/02/03 10:31:01;;;;;;;;;;;;;;;7.26;48.09;100943.88;107634;1250;111355;-64
2024/02/03 10:33:30;;;;;;;;;;;;;;;7.47;47.82;100933.25;107615;1251;108007;-63
2024/02/03 10:35:58;;;;;;;;;;;;;;;7.63;48.13;100929.23;107591;1251;107538;-62
2024/02/03 10:38:26;;;;;;;;;;;;;;;7.84;47.96;100932.83;107629;1251;97822;-62
2024/02/03 10:40:55;;;;;;;;;;;;;;;7.94;47.91;100930.52;107606;1250;97859;-63
2024/02/03 10:43:25;;;;;;;;;;;;;;;7.99;47.08;100913.00;107581;1251;112345;-63
2024/02/03 10:45:56;;;;;;;;;;;;;;;7.97;47.34;100906.69;107595;1251;107836;-64
2024/02/03 10:48:25;;;;;;;;;;;;;;;7.96;47.06;100896.39;107566;1252;108202;-65
2024/02/03 10:50:59;;;;;;;;;;;;;;;8.00;46.97;100896.13;107561;1253;97827;-66
2024/02/03 10:53:32;;;;;;;;;;;;;;;8.09;46.66;100893.48;107617;1253;97976;-64
2024/02/03 10:56:05;;;;;;;;;;;;;;;8.31;47.10;100892.34;107630;1251;112052;-64
2024/02/03 10:58:33;;;;;;;;;;;;;;;8.62;47.47;100887.50;107530;1253;108202;-65
2024/02/03 11:01:20;;;;;;;;;;;;;;;8.67;47.26;100883.55;107665;1254;108977;-63
2024/02/03 11:03:50;;;;;;;;;;;;;;;8.65;46.19;100888.35;107617;1252;97733;-62
2024/02/03 11:06:28;;;;;;;;;;;;;;;8.59;46.58;100883.59;107633;1253;97854;-62
2024/02/03 11:09:17;;;;;;;;;;;;;;;8.53;46.88;100879.94;107578;1253;111942;-62
2024/02/03 11:11:48;;;;;;;;;;;;;;;8.46;46.88;100885.34;107607;1251;108614;-63
2024/02/03 11:14:16;;;;;;;;;;;;;;;8.33;47.49;100878.08;107562;1251;107715;-62
2024/02/03 11:16:51;;;;;;;;;;;;;;;8.26;47.70;100878.39;107505;1254;97828;-63
2024/02/03 11:19:26;;;;;;;;;;;;;;;8.22;47.04;100875.89;107535;1251;97860;-63
2024/02/03 11:21:56;;;;;;;;;;;;;;;8.18;47.19;100876.21;107544;1251;112065;-63
2024/02/03 11:24:25;;;;;;;;;;;;;;;8.13;47.23;100872.27;107528;1250;108329;-65
2024/02/03 11:26:56;;;;;;;;;;;;;;;8.11;47.23;100869.20;107457;1251;107403;-65
2024/02/03 11:29:24;;;;;;;;;;;;;;;8.09;46.93;100866.48;107592;1252;97739;-65
2024/02/03 11:32:11;;;;;;;;;;;;;;;8.08;46.91;100867.80;107595;1251;97733;-63
2024/02/03 11:34:40;;;;;;;;;;;;;;;8.02;47.53;100872.36;107485;1253;111919;-62
2024/02/03 11:37:14;;;;;;;;;;;;;;;8.03;47.96;100868.57;107535;1255;108437;-63
2024/02/03 11:39:43;;;;;;;;;;;;;;;8.05;47.63;100865.36;107502;1251;108390;-63
2024/02/03 11:42:11;;;;;;;;;;;;;;;8.08;47.63;100863.56;107521;1251;97905;-63
2024/02/03 11:44:56;;;;;;;;;;;;;;;8.09;47.78;100864.18;107478;1251;97867;-62
2024/02/03 11:47:24;;;;;;;;;;;;;;;8.13;48.06;100862.61;107488;1253;111696;-63
2024/02/03 11:49:53;;;;;;;;;;;;;;;8.18;47.94;100860.52;107523;1253;108690;-62
2024/02/03 11:52:25;;;;;;;;;;;;;;;8.22;47.54;100854.98;107518;1254;108460;-63
2024/02/03 11:54:54;;;;;;;;;;;;;;;8.24;47.63;100855.16;107587;1251;97723;-63
2024/02/03 11:57:22;;;;;;;;;;;;;;;8.25;47.95;100852.22;107496;1250;98047;-62
2024/02/03 12:00:01;;;;;;;;;;;;;;;8.28;47.47;100846.27;107476;1250;111513;-65
2024/02/03 12:02:31;;;;;;;;;;;;;;;8.30;48.11;100842.73;107462;1251;108004;-65
2024/02/03 12:04:59;;;;;;;;;;;;;;;8.34;48.21;100846.20;107485;1254;108101;-64
2024/02/03 12:07:28;;;;;;;;;;;;;;;8.40;47.77;100843.92;107461;1250;97850;-65
2024/02/03 12:09:56;;;;;;;;;;;;;;;8.45;47.51;100849.63;107584;1251;97886;-64
2024/02/03 12:12:25;;;;;;;;;;;;;;;8.50;47.58;100850.02;107572;1251;111920;-63
2024/02/03 12:14:53;;;;;;;;;;;;;;;8.52;47.67;100852.20;107534;1253;107971;-63
2024/02/03 12:17:21;;;;;;;;;;;;;;;8.54;47.45;100844.84;107482;1251;108636;-63
2024/02/03 12:19:49;;;;;;;;;;;;;;;8.56;47.42;100834.50;107498;1251;97840;-63
2024/02/03 12:22:18;;;;;;;;;;;;;;;8.55;47.24;100828.00;107519;1254;97762;-62
2024/02/03 12:24:51;;;;;;;;;;;;;;;8.53;47.56;100834.23;107578;1250;111431;-62
2024/02/03 12:27:20;;;;;;;;;;;;;;;8.51;47.60;100832.23;107508;1251;108289;-63
2024/02/03 12:29:49;;;;;;;;;;;;;;;8.49;47.45;100831.67;107573;1251;107666;-63
2024/02/03 12:32:17;;;;;;;;;;;;;;;8.53;46.92;100830.09;107465;1251;97819;-65
2024/02/03 12:34:46;;;;;;;;;;;;;;;8.59;46.99;100832.33;107490;1251;97954;-66